Terminal Aerodrome Forecast
Issued by NWS Mobile, AL

Home | Current Version | Previous Version | Text Only | Print | Product List | Glossary On
Versions: 1 2 3 4 5 6 7 8 9 10 11 12 13 14 15 16 17 18 19 20 21 22 23 24 25
000
FTUS44 KMOB 181726
TAFMOB
TAF
KMOB 181726Z 1818/1918 23015G23KT P6SM SCT035 BKN040 BKN250
     FM190200 21012G20KT 4SM TSRA BKN025CB
     FM190500 33016G26KT P6SM BKN050
     FM191500 36015G25KT P6SM FEW050=

USA.gov is the U.S. government's official web portal to all federal, state and local government web resources and services.